Time;durP1;ratioP1;P1;durP2;ratioP2;P2;SDS_P1;SDS_P2;PMS_P1;PMS_P2;Temp;Humidity;BMP_temperature;BMP_pressure;BME280_temperature;BME280_humidity;BME280_pressure;Samples;Min_cycle;Max_cycle;Signal;HPM_P1;HPM_P2
2021/08/19 00:01:36;;;;;;;31.27;13.72;;;;;;;22.35;65.03;100074.47;1674066;84;21516;-65
2021/08/19 00:04:11;;;;;;;29.67;14.75;;;;;;;22.32;65.20;100068.23;1676629;85;21223;-65
2021/08/19 00:06:44;;;;;;;28.55;14.20;;;;;;;22.24;66.26;100060.48;1688980;84;21320;-67
2021/08/19 00:09:18;;;;;;;35.40;13.68;;;;;;;22.24;66.26;100060.48;1700838;84;21721;-68
2021/08/19 00:11:51;;;;;;;23.18;13.78;;;;;;;22.25;66.29;100064.80;1702232;84;21171;-66
2021/08/19 00:14:24;;;;;;;34.75;14.60;;;;;;;22.22;66.49;100064.70;1705267;84;21268;-66
2021/08/19 00:16:57;;;;;;;34.20;14.47;;;;;;;22.20;66.55;100059.28;1705433;84;21215;-66
2021/08/19 00:19:31;;;;;;;27.30;13.28;;;;;;;22.19;66.87;100063.00;1704151;84;21165;-66
2021/08/19 00:22:05;;;;;;;27.17;13.70;;;;;;;22.16;67.06;100066.09;1705684;84;21312;-66
2021/08/19 00:24:38;;;;;;;23.95;13.22;;;;;;;22.13;67.31;100069.50;1705074;84;21205;-66
2021/08/19 00:27:12;;;;;;;22.67;13.78;;;;;;;22.11;67.46;100068.07;1707216;84;21229;-66
2021/08/19 00:29:45;;;;;;;31.27;14.90;;;;;;;22.09;67.63;100066.14;1705808;84;21205;-66
2021/08/19 00:32:18;;;;;;;26.33;14.40;;;;;;;22.07;67.92;100062.84;1704835;84;21226;-65
2021/08/19 00:34:51;;;;;;;27.90;13.88;;;;;;;22.03;68.32;100074.47;1703968;84;21856;-66
2021/08/19 00:37:24;;;;;;;29.23;14.40;;;;;;;22.00;68.50;100065.56;1705650;84;21280;-66
2021/08/19 00:39:57;;;;;;;30.48;14.50;;;;;;;21.98;68.61;100063.63;1705518;84;21201;-66
2021/08/19 00:42:33;;;;;;;28.92;15.35;;;;;;;21.97;68.94;100068.65;1705542;84;21154;-66
2021/08/19 00:45:08;;;;;;;25.70;14.38;;;;;;;21.95;69.17;100068.56;1704167;84;21216;-66
2021/08/19 00:47:42;;;;;;;26.45;14.65;;;;;;;21.93;69.32;100066.63;1705636;84;21280;-66
2021/08/19 00:50:15;;;;;;;29.40;15.38;;;;;;;21.90;69.49;100068.41;1705968;84;21361;-65
2021/08/19 00:52:49;;;;;;;27.00;13.95;;;;;;;21.88;69.75;100069.94;1705266;84;21216;-65
2021/08/19 00:55:22;;;;;;;25.52;14.83;;;;;;;21.85;69.69;100064.23;1705287;84;21196;-67
2021/08/19 00:57:57;;;;;;;33.63;16.95;;;;;;;21.81;69.75;100064.30;1681122;85;21201;-66
2021/08/19 01:00:30;;;;;;;28.87;15.20;;;;;;;21.76;69.97;100058.80;1682057;85;21840;-66
2021/08/19 01:03:03;;;;;;;29.40;15.53;;;;;;;21.72;69.95;100066.92;1654894;87;21316;-66
2021/08/19 01:05:40;;;;;;;32.10;15.68;;;;;;;21.67;69.95;100066.23;1681899;85;21355;-66
2021/08/19 01:08:13;;;;;;;29.87;16.02;;;;;;;21.61;70.18;100068.42;1653547;86;21180;-66
2021/08/19 01:10:46;;;;;;;30.15;14.73;;;;;;;21.57;70.36;100067.69;1682220;85;21213;-66
2021/08/19 01:13:20;;;;;;;28.60;15.15;;;;;;;21.53;70.54;100068.65;1653081;86;21217;-67
2021/08/19 01:15:54;;;;;;;31.15;16.20;;;;;;;21.48;70.54;100062.62;1683003;85;21169;-66
2021/08/19 01:18:28;;;;;;;31.50;15.43;;;;;;;21.46;70.50;100064.69;1654891;87;21157;-66
2021/08/19 01:21:02;;;;;;;32.15;16.00;;;;;;;21.44;70.27;100064.59;1654724;85;21185;-66
2021/08/19 01:23:36;;;;;;;28.55;14.60;;;;;;;21.41;70.34;100061.84;1654908;87;21335;-66
2021/08/19 01:26:17;;;;;;;32.17;14.40;;;;;;;21.39;68.13;100064.41;1682061;85;21233;-66
2021/08/19 01:28:54;;;;;;;35.65;15.32;;;;;;;21.40;67.70;100062.02;1654777;87;21154;-67
2021/08/19 01:31:27;;;;;;;41.50;13.88;;;;;;;21.41;68.00;100061.84;1680865;85;21326;-67
2021/08/19 01:33:59;;;;;;;;;;;;;;;21.42;65.81;100063.98;1630342;87;21275;-66
2021/08/19 01:36:32;;;;;;;32.83;15.35;;;;;;;21.45;65.36;100067.03;1681759;85;20171;-67
2021/08/19 01:39:06;;;;;;;33.20;14.18;;;;;;;21.46;65.69;100067.86;1682393;85;21192;-65
2021/08/19 01:41:39;;;;;;;31.15;14.78;;;;;;;21.46;67.05;100069.19;1654777;87;21316;-66
2021/08/19 01:44:13;;;;;;;28.30;15.48;;;;;;;21.45;67.83;100068.88;1682684;85;21280;-66
2021/08/19 01:46:51;;;;;;;33.53;14.65;;;;;;;21.41;68.60;100076.48;1654383;87;21209;-66
2021/08/19 01:49:26;;;;;;;31.48;15.23;;;;;;;21.38;69.25;100074.23;1682273;85;21264;-66
2021/08/19 01:52:01;;;;;;;32.38;15.18;;;;;;;21.34;69.69;100078.86;1654119;87;21212;-66
2021/08/19 01:54:35;;;;;;;25.68;15.25;;;;;;;21.32;70.03;100088.40;1681156;84;21221;-66
2021/08/19 01:57:08;;;;;;;32.08;15.50;;;;;;;21.28;70.38;100081.83;1659268;85;21174;-67
2021/08/19 01:59:43;;;;;;;39.00;17.35;;;;;;;21.25;70.62;100082.78;1724852;83;21162;-67
2021/08/19 02:02:16;;;;;;;31.12;16.35;;;;;;;21.22;70.88;100082.69;1724677;83;21284;-66
2021/08/19 02:04:50;;;;;;;29.57;14.03;;;;;;;21.19;70.82;100078.28;1726597;83;21142;-66
2021/08/19 02:07:24;;;;;;;35.50;15.05;;;;;;;21.17;69.83;100076.34;1723722;83;21326;-67
2021/08/19 02:09:58;;;;;;;35.40;15.23;;;;;;;21.16;67.66;100078.72;1725215;83;21273;-67
2021/08/19 02:12:31;;;;;;;28.23;15.28;;;;;;;21.15;67.39;100079.73;1724296;83;21332;-67
2021/08/19 02:15:05;;;;;;;29.92;13.68;;;;;;;21.14;67.52;100085.56;1725736;83;21277;-66
2021/08/19 02:17:39;;;;;;;30.12;13.98;;;;;;;21.13;67.36;100077.80;1723446;82;21170;-66
2021/08/19 02:20:13;;;;;;;27.75;13.68;;;;;;;21.13;66.61;100072.47;1725087;83;21154;-66
2021/08/19 02:22:52;;;;;;;26.20;13.70;;;;;;;21.15;65.25;100081.06;1723372;82;21190;-66
2021/08/19 02:25:22;;;;;;;35.28;13.40;;;;;;;21.16;64.21;100082.70;1724920;83;21146;-66
2021/08/19 02:27:55;;;;;;;31.10;13.43;;;;;;;21.19;64.65;100088.92;1725791;83;21218;-66
2021/08/19 02:30:28;;;;;;;30.35;13.58;;;;;;;21.19;64.47;100090.25;1725337;83;21250;-66
2021/08/19 02:33:03;;;;;;;30.10;12.00;;;;;;;21.20;63.89;100089.24;1724755;83;21296;-66
2021/08/19 02:35:36;;;;;;;24.63;11.68;;;;;;;21.21;62.67;100095.67;1724865;83;21189;-66
2021/08/19 02:38:09;;;;;;;27.67;11.55;;;;;;;21.25;60.92;100094.26;1724475;83;21277;-66
2021/08/19 02:40:42;;;;;;;30.35;11.73;;;;;;;21.29;59.65;100099.45;1725280;83;21254;-66
2021/08/19 02:43:16;;;;;;;30.37;11.93;;;;;;;21.34;58.69;100098.83;1724341;83;21345;-68
2021/08/19 02:45:49;;;;;;;32.67;11.75;;;;;;;21.40;58.09;100107.30;1725423;83;21293;-66
2021/08/19 02:48:22;;;;;;;29.48;10.95;;;;;;;21.45;57.41;100104.83;1724001;83;21194;-66
2021/08/19 02:50:55;;;;;;;27.93;11.10;;;;;;;21.52;56.26;100100.83;1726048;83;21170;-65
2021/08/19 02:53:29;;;;;;;31.05;11.97;;;;;;;21.59;55.97;100104.30;1724467;83;21281;-66
2021/08/19 02:56:03;;;;;;;38.20;11.63;;;;;;;21.65;54.94;100104.77;1725124;83;21273;-66
2021/08/19 02:58:37;;;;;;;35.30;11.68;;;;;;;21.71;54.75;100107.39;1723816;83;21324;-66
2021/08/19 03:01:10;;;;;;;32.17;10.80;;;;;;;21.76;54.29;100104.92;1725190;83;21135;-66
2021/08/19 03:03:44;;;;;;;28.70;10.38;;;;;;;21.81;53.95;100112.27;1724037;83;21296;-66
2021/08/19 03:06:17;;;;;;;26.87;10.75;;;;;;;21.84;53.77;100114.05;1725117;83;21146;-67
2021/08/19 03:08:50;;;;;;;29.12;11.05;;;;;;;21.87;53.36;100114.96;1722194;83;21229;-67
2021/08/19 03:11:24;;;;;;;38.83;12.13;;;;;;;21.91;52.69;100118.00;1722036;82;21162;-68
2021/08/19 03:13:58;;;;;;;29.77;11.45;;;;;;;21.95;52.37;100121.36;1722420;83;21832;-64
2021/08/19 03:16:32;;;;;;;31.12;11.38;;;;;;;22.00;52.31;100115.39;1724470;83;21265;-66
2021/08/19 03:19:06;;;;;;;40.98;12.40;;;;;;;22.05;53.45;100122.23;1722101;83;21281;-66
2021/08/19 03:21:39;;;;;;;30.07;11.33;;;;;;;22.10;54.54;100123.75;1722673;83;21193;-66
2021/08/19 03:24:13;;;;;;;47.00;13.43;;;;;;;22.13;55.87;100129.48;1722883;83;21288;-67
2021/08/19 03:26:46;;;;;;;42.43;13.05;;;;;;;22.16;56.34;100118.91;1722370;83;21352;-66
2021/08/19 03:29:19;;;;;;;32.93;12.68;;;;;;;22.20;56.51;100127.28;1722842;83;21322;-67
2021/08/19 03:31:52;;;;;;;73.30;13.83;;;;;;;22.22;55.64;100128.70;1723071;83;21363;-67
2021/08/19 03:34:26;;;;;;;69.80;15.43;;;;;;;22.27;54.23;100133.39;1697069;83;21197;-67
2021/08/19 03:37:00;;;;;;;60.73;14.90;;;;;;;22.36;53.82;100134.77;1691651;85;21281;-68
2021/08/19 03:39:35;;;;;;;42.65;12.95;;;;;;;22.45;53.36;100134.29;1721313;83;21375;-68
2021/08/19 03:42:09;;;;;;;41.85;14.00;;;;;;;22.55;53.97;100129.81;1722732;83;21182;-66
2021/08/19 03:44:43;;;;;;;47.33;15.40;;;;;;;22.66;55.74;100138.50;1723061;83;21336;-66
2021/08/19 03:47:17;;;;;;;42.98;15.32;;;;;;;22.73;56.81;100136.60;1725174;83;21258;-66
2021/08/19 03:49:51;;;;;;;39.98;13.62;;;;;;;22.77;55.88;100137.28;1724242;83;21329;-64
2021/08/19 03:52:24;;;;;;;48.52;14.75;;;;;;;22.82;56.16;100142.47;1724773;83;21210;-63
2021/08/19 03:54:57;;;;;;;44.27;13.15;;;;;;;22.88;55.93;100141.62;1723928;83;21300;-62
2021/08/19 03:57:31;;;;;;;43.85;13.88;;;;;;;22.97;55.51;100142.97;1723414;82;21135;-65
2021/08/19 04:00:06;;;;;;;53.45;18.52;;;;;;;23.07;54.15;100145.97;1723549;83;21205;-64
2021/08/19 04:02:47;;;;;;;42.53;14.33;;;;;;;23.19;54.38;100142.88;1721325;83;21442;-64
2021/08/19 04:05:21;;;;;;;65.17;16.37;;;;;;;23.29;55.36;100143.16;1721842;83;21198;-65
2021/08/19 04:07:54;;;;;;;72.00;26.82;;;;;;;23.35;55.49;100138.31;1721321;83;21201;-65
2021/08/19 04:10:27;;;;;;;118.60;40.33;;;;;;;23.42;55.62;100147.08;1721287;83;21190;-66
2021/08/19 04:13:01;;;;;;;120.67;42.50;;;;;;;23.47;55.67;100144.56;1719051;82;21983;-66
2021/08/19 04:15:34;;;;;;;;;;;;;;;23.51;55.78;100143.06;1723577;83;21221;-65
2021/08/19 04:18:10;;;;;;;98.75;34.88;;;;;;;23.55;55.73;100138.90;1722060;83;20190;-64
2021/08/19 04:20:43;;;;;;;97.97;28.52;;;;;;;23.63;55.58;100149.30;1723432;83;21202;-66
2021/08/19 04:23:16;;;;;;;113.52;34.78;;;;;;;23.87;56.15;100152.92;1724979;83;21260;-69
2021/08/19 04:25:49;;;;;;;;;;;;;;;24.23;56.48;100154.23;1724766;83;21395;-70
2021/08/19 04:28:24;;;;;;;56.95;20.43;;;;;;;24.78;55.13;100153.54;1727250;82;20226;-69
2021/08/19 04:30:57;;;;;;;54.98;18.92;;;;;;;25.23;52.34;100147.09;1723695;83;21288;-68
2021/08/19 04:33:30;;;;;;;52.45;19.80;;;;;;;25.40;50.33;100141.31;1724812;83;21292;-68
2021/08/19 04:36:03;;;;;;;40.78;14.75;;;;;;;25.42;49.21;100143.23;1723940;83;21341;-67
2021/08/19 04:38:38;;;;;;;63.02;15.60;;;;;;;25.63;47.44;100141.82;1724824;83;21247;-68
2021/08/19 04:41:12;;;;;;;53.83;14.33;;;;;;;26.17;46.12;100145.37;1723757;83;21305;-68
2021/08/19 04:43:45;;;;;;;57.00;13.25;;;;;;;26.83;44.66;100147.88;1724888;83;21174;-68
2021/08/19 04:46:18;;;;;;;46.42;12.75;;;;;;;27.21;44.29;100143.89;1723653;83;21301;-68
2021/08/19 04:48:51;;;;;;;65.45;15.13;;;;;;;27.34;43.71;100139.52;1724996;83;21289;-68
2021/08/19 04:51:24;;;;;;;89.30;16.52;;;;;;;27.70;43.32;100144.86;1724913;83;21297;-68
2021/08/19 04:53:58;;;;;;;67.62;15.25;;;;;;;28.20;42.08;100143.31;1725767;83;21257;-68
2021/08/19 04:56:39;;;;;;;89.00;16.40;;;;;;;28.74;40.85;100136.02;1723358;83;21162;-68
2021/08/19 04:59:48;;;;;;;88.65;22.60;;;;;;;29.60;39.14;100134.70;1825728;76;26705;-71
2021/08/19 05:02:22;;;;;;;85.55;18.23;;;;;;;30.08;37.69;100138.95;1789246;79;21152;-72
2021/08/19 05:04:56;;;;;;;48.73;14.30;;;;;;;30.58;37.03;100140.41;1798944;79;21322;-70
2021/08/19 05:11:25;;;;;;;57.75;14.33;;;;;;;31.52;35.23;100135.19;1784650;80;20200;-69
2021/08/19 05:14:03;;;;;;;64.22;15.15;;;;;;;32.15;33.65;100124.06;1783578;80;21193;-69
2021/08/19 05:16:36;;;;;;;42.38;13.32;;;;;;;32.68;33.27;100129.66;1788187;80;21331;-70
2021/08/19 05:19:10;;;;;;;44.83;12.18;;;;;;;33.16;32.13;100122.72;1782856;79;21185;-71
2021/08/19 05:21:43;;;;;;;;;;;;;;;33.47;29.66;100118.30;1787067;80;21283;-69
2021/08/19 05:24:17;;;;;;;40.35;12.40;;;;;;;33.67;28.71;100123.52;1783894;80;20737;-71
2021/08/19 05:26:50;;;;;;;50.65;13.50;;;;;;;33.76;28.52;100116.33;1782909;80;21191;-75
2021/08/19 05:33:34;;;;;;;36.13;12.20;;;;;;;34.26;27.27;100111.56;1753558;80;21216;-72
2021/08/19 05:36:09;;;;;;;;;;;;;;;34.63;26.52;100117.53;1737307;82;22119;-74
2021/08/19 05:38:44;;;;;;;41.18;12.13;;;;;;;34.86;26.25;100115.77;1757427;82;20219;-76
2021/08/19 05:41:16;;;;;;;;;;;;;;;34.99;26.30;100114.41;1759615;82;21283;-74
2021/08/19 05:43:50;;;;;;;35.50;12.35;;;;;;;35.24;25.90;100115.08;1751894;82;20640;-74
2021/08/19 05:46:23;;;;;;;40.15;12.23;;;;;;;35.45;25.53;100116.28;1753513;82;21149;-74
2021/08/19 05:48:57;;;;;;;39.80;12.55;;;;;;;35.78;25.24;100121.32;1752666;82;21617;-75
2021/08/19 05:51:30;;;;;;;39.48;12.93;;;;;;;36.30;24.96;100116.38;1753424;82;21447;-72
2021/08/19 05:54:03;;;;;;;42.05;12.53;;;;;;;36.99;24.30;100125.86;1753175;82;21299;-72
2021/08/19 05:56:37;;;;;;;39.83;12.03;;;;;;;37.72;23.63;100116.41;1751965;81;21356;-73
2021/08/19 05:59:10;;;;;;;34.23;12.73;;;;;;;38.44;22.72;100113.11;1766530;80;21315;-71
2021/08/19 06:01:43;;;;;;;40.05;13.03;;;;;;;38.98;21.97;100108.24;1785291;80;21831;-71
2021/08/19 06:04:18;;;;;;;36.28;12.60;;;;;;;39.48;21.58;100113.05;1788691;80;21481;-71
2021/08/19 06:06:52;;;;;;;37.60;12.63;;;;;;;39.96;21.08;100112.59;1786171;80;21350;-72
2021/08/19 06:09:25;;;;;;;40.03;13.30;;;;;;;40.34;20.04;100111.30;1781691;80;21307;-72
2021/08/19 06:16:08;;;;;;;36.35;12.13;;;;;;;40.61;19.02;100106.39;1783973;80;22157;-70
2021/08/19 06:18:42;;;;;;;28.20;12.15;;;;;;;40.82;19.01;100118.91;1781751;80;22112;-70
2021/08/19 06:21:15;;;;;;;34.35;11.35;;;;;;;41.09;18.46;100122.98;1784186;80;21295;-68
2021/08/19 06:23:48;;;;;;;34.05;13.28;;;;;;;41.21;18.53;100118.06;1782165;80;21561;-73
2021/08/19 06:26:24;;;;;;;29.12;11.63;;;;;;;41.41;17.82;100115.81;1769376;80;21272;-72
2021/08/19 06:28:57;;;;;;;31.45;11.93;;;;;;;41.43;17.60;100112.14;1756791;82;21592;-74
2021/08/19 06:31:31;;;;;;;31.25;12.58;;;;;;;41.49;17.67;100110.19;1755372;82;21255;-74
2021/08/19 06:34:04;;;;;;;33.40;12.70;;;;;;;41.88;17.55;100114.73;1753385;82;21173;-73
2021/08/19 06:36:38;;;;;;;37.28;12.43;;;;;;;42.21;16.92;100111.21;1752978;82;21346;-71
2021/08/19 06:39:12;;;;;;;29.25;11.43;;;;;;;42.52;16.97;100106.39;1753397;82;21193;-71
2021/08/19 06:41:47;;;;;;;26.35;11.48;;;;;;;42.93;16.34;100108.69;1753271;82;21621;-71
2021/08/19 06:44:20;;;;;;;34.92;11.48;;;;;;;43.28;15.90;100098.53;1751490;81;21704;-73
2021/08/19 06:46:54;;;;;;;28.75;11.38;;;;;;;43.68;15.92;100106.61;1754000;82;22063;-74
2021/08/19 06:49:28;;;;;;;31.25;11.78;;;;;;;44.19;15.43;100103.16;1754796;82;22067;-68
2021/08/19 06:52:02;;;;;;;23.25;11.55;;;;;;;44.60;15.29;100098.84;1757334;82;21307;-75
2021/08/19 06:54:41;;;;;;;28.77;11.75;;;;;;;44.81;14.17;100098.64;1756109;82;21180;-76
2021/08/19 06:57:13;;;;;;;23.92;11.20;;;;;;;45.11;13.87;100100.16;1753599;82;21310;-75
2021/08/19 06:59:47;;;;;;;30.97;10.93;;;;;;;45.14;13.78;100097.24;1755322;81;21180;-74
2021/08/19 07:02:20;;;;;;;31.87;12.18;;;;;;;45.11;13.84;100098.78;1739731;81;21331;-72
2021/08/19 07:04:55;;;;;;;25.30;10.98;;;;;;;45.31;14.25;100105.82;1742249;81;21495;-71
2021/08/19 07:07:28;;;;;;;27.42;11.05;;;;;;;45.18;13.40;100110.52;1742666;82;21184;-74
2021/08/19 07:10:03;;;;;;;29.27;11.75;;;;;;;44.88;13.53;100107.65;1739187;82;21319;-71
2021/08/19 07:12:37;;;;;;;32.13;10.82;;;;;;;44.98;13.08;100102.09;1737832;82;21209;-69
2021/08/19 07:15:11;;;;;;;34.75;11.78;;;;;;;45.13;13.08;100097.82;1742695;82;21331;-73
2021/08/19 07:17:44;;;;;;;23.12;10.70;;;;;;;45.25;13.37;100112.84;1745240;82;21222;-74
2021/08/19 07:20:19;;;;;;;26.07;10.85;;;;;;;45.37;12.87;100095.25;1738122;82;21217;-73
2021/08/19 07:22:54;;;;;;;28.40;11.70;;;;;;;45.30;12.81;100096.53;1739658;82;22239;-75
2021/08/19 07:25:33;;;;;;;29.02;10.80;;;;;;;45.31;13.03;100097.53;1739330;82;21597;-74
2021/08/19 07:28:06;;;;;;;22.13;10.93;;;;;;;45.12;13.10;100110.03;1739817;82;21554;-73
2021/08/19 07:30:40;;;;;;;20.10;9.83;;;;;;;44.92;12.43;100114.05;1736725;82;21609;-72
2021/08/19 07:33:13;;;;;;;24.12;9.70;;;;;;;44.61;12.61;100103.22;1739879;82;21173;-72
2021/08/19 07:35:49;;;;;;;28.42;12.33;;;;;;;44.58;13.21;100103.94;1739167;82;21299;-71
2021/08/19 07:38:22;;;;;;;21.93;10.78;;;;;;;44.82;13.22;100110.49;1739210;82;21232;-72
2021/08/19 07:40:55;;;;;;;25.12;11.75;;;;;;;44.77;13.04;100102.51;1743561;82;21212;-73
2021/08/19 07:43:51;;;;;;;27.55;10.88;;;;;;;44.57;12.99;100112.80;1737742;82;21823;-73
2021/08/19 07:46:37;;;;;;;28.17;11.03;;;;;;;44.43;13.48;100106.19;1737792;82;21303;-71
2021/08/19 07:49:10;;;;;;;19.30;9.58;;;;;;;44.51;13.17;100117.62;1737494;82;21177;-72
2021/08/19 07:51:44;;;;;;;20.45;10.15;;;;;;;44.45;12.86;100115.70;1726263;82;21315;-75
2021/08/19 07:54:20;;;;;;;28.23;11.38;;;;;;;44.28;12.93;100094.67;1739455;82;21193;-72
2021/08/19 07:56:54;;;;;;;17.70;10.40;;;;;;;44.41;12.53;100103.80;1741702;82;21835;-71
2021/08/19 07:59:29;;;;;;;22.58;10.30;;;;;;;44.38;12.34;100104.52;1739768;82;21718;-75
2021/08/19 08:02:12;;;;;;;21.50;10.35;;;;;;;44.39;12.20;100099.23;1735423;82;21545;-72
2021/08/19 08:04:45;;;;;;;19.52;10.80;;;;;;;44.69;11.86;100096.05;1743709;81;21205;-72
2021/08/19 08:07:18;;;;;;;24.18;9.78;;;;;;;44.96;11.62;100087.85;1739890;82;21162;-74
2021/08/19 08:09:51;;;;;;;22.73;10.03;;;;;;;45.14;11.44;100102.19;1738525;82;21905;-73
2021/08/19 08:12:25;;;;;;;21.65;9.25;;;;;;;45.35;11.22;100083.20;1737373;82;21303;-75
2021/08/19 08:14:58;;;;;;;20.35;10.15;;;;;;;45.53;10.87;100089.53;1738281;82;21308;-74
2021/08/19 08:17:33;;;;;;;20.02;10.03;;;;;;;45.30;10.55;100091.00;1739789;82;21295;-72
2021/08/19 08:20:09;;;;;;;17.77;9.60;;;;;;;44.80;11.06;100086.59;1727519;82;21311;-72
2021/08/19 08:26:52;;;;;;;24.47;9.95;;;;;;;44.46;11.59;100081.45;1740411;82;21140;-73
2021/08/19 08:29:26;;;;;;;12.85;8.65;;;;;;;44.13;12.00;100086.12;1744292;82;21192;-73
2021/08/19 08:32:05;;;;;;;21.23;9.65;;;;;;;43.89;12.23;100062.94;1738825;82;22076;-72
2021/08/19 08:38:48;;;;;;;18.92;8.85;;;;;;;43.63;12.20;100063.32;1743823;82;21113;-74
2021/08/19 08:41:22;;;;;;;16.48;8.45;;;;;;;43.78;11.82;100063.87;1741950;82;21177;-71
2021/08/19 08:48:12;;;;;;;16.30;8.95;;;;;;;44.19;11.79;100054.87;1727411;82;21141;-70
2021/08/19 08:50:48;;;;;;;17.82;8.63;;;;;;;44.09;10.89;100064.53;1740980;81;21224;-74
2021/08/19 08:53:23;;;;;;;15.95;8.78;;;;;;;43.69;11.10;100070.97;1740623;82;21219;-72
2021/08/19 08:55:57;;;;;;;17.62;8.45;;;;;;;43.16;11.44;100060.66;1703835;84;21322;-76
2021/08/19 08:58:31;;;;;;;17.70;8.05;;;;;;;42.62;11.76;100054.95;1730729;82;21300;-71
2021/08/19 09:01:04;;;;;;;16.97;8.15;;;;;;;42.47;11.86;100057.10;1738624;82;21358;-73
2021/08/19 09:03:38;;;;;;;13.78;7.72;;;;;;;42.06;12.12;100045.93;1738486;82;21320;-72
2021/08/19 09:06:11;;;;;;;14.68;8.28;;;;;;;41.78;11.67;100045.91;1735427;82;21205;-74
2021/08/19 09:08:53;;;;;;;17.92;8.30;;;;;;;41.39;12.11;100053.55;1736089;82;21174;-72
2021/08/19 09:11:26;;;;;;;12.93;7.25;;;;;;;41.12;12.68;100056.39;1735823;82;21335;-70
2021/08/19 09:14:00;;;;;;;16.07;7.92;;;;;;;40.90;12.57;100062.33;1738981;82;21552;-72
2021/08/19 09:16:34;;;;;;;15.18;7.72;;;;;;;40.49;12.75;100042.67;1706850;82;21260;-70
2021/08/19 09:19:11;;;;;;;15.78;8.38;;;;;;;40.30;13.31;100044.55;1703814;82;21165;-72
2021/08/19 09:21:52;;;;;;;20.02;7.42;;;;;;;40.16;13.42;100040.50;1738179;82;21371;-70
2021/08/19 09:24:28;;;;;;;15.87;8.00;;;;;;;39.90;13.31;100059.90;1738444;82;21174;-69
2021/08/19 09:27:37;;;;;;;13.15;7.22;;;;;;;39.59;13.28;100052.64;1737562;82;21374;-70
2021/08/19 09:30:11;;;;;;;17.52;8.20;;;;;;;39.16;13.48;100049.34;1735834;82;21216;-69
2021/08/19 09:40:38;;;;;;;;;;;;;;;38.35;14.39;100049.42;1741187;82;21331;-70
2021/08/19 09:43:13;;;;;;;12.45;7.72;;;;;;;38.07;14.67;100050.87;1734271;81;20721;-70
2021/08/19 09:45:47;;;;;;;17.35;8.03;;;;;;;37.91;14.95;100031.42;1736217;81;21201;-71
2021/08/19 09:48:20;;;;;;;12.65;7.37;;;;;;;37.83;15.00;100030.03;1736781;82;21205;-70
2021/08/19 09:50:54;;;;;;;15.63;7.70;;;;;;;37.63;14.93;100044.56;1737898;82;22110;-69
2021/08/19 09:57:37;;;;;;;15.50;8.23;;;;;;;37.21;15.34;100032.17;1734673;81;21581;-69
2021/08/19 10:00:12;;;;;;;16.12;6.05;;;;;;;36.88;15.90;100032.50;1739741;82;21316;-72
2021/08/19 10:02:45;;;;;;;20.30;7.95;;;;;;;36.63;15.95;100037.30;1728394;82;21360;-71
2021/08/19 10:05:19;;;;;;;15.00;7.60;;;;;;;36.53;16.38;100017.66;1739747;82;21454;-70
2021/08/19 10:07:51;;;;;;;;;;;;;;;36.48;16.70;100018.60;1740748;81;21181;-69
2021/08/19 10:14:34;;;;;;;12.05;7.35;;;;;;;36.40;16.25;100029.67;1738422;82;21450;-74
2021/08/19 10:17:08;;;;;;;;;;;;;;;36.14;16.46;100023.80;1741979;82;21316;-73
2021/08/19 10:19:45;;;;;;;14.83;7.65;;;;;;;36.04;16.69;100021.34;1753455;81;20394;-69
2021/08/19 10:22:20;;;;;;;16.48;7.75;;;;;;;36.00;17.07;100022.51;1739595;82;21319;-68
2021/08/19 10:24:55;;;;;;;14.10;7.75;;;;;;;36.06;17.06;100018.56;1739967;81;21208;-73
2021/08/19 10:27:29;;;;;;;21.45;13.43;;;;;;;36.12;16.92;100019.22;1740983;82;21304;-73
2021/08/19 10:30:07;;;;;;;14.63;7.80;;;;;;;36.13;17.35;100046.73;1739635;82;21339;-69
2021/08/19 10:32:42;;;;;;;12.65;7.60;;;;;;;36.09;16.82;100025.31;1738858;82;22087;-70
2021/08/19 10:39:27;;;;;;;12.73;7.95;;;;;;;35.88;16.74;100024.13;1738156;82;21709;-73
2021/08/19 10:42:01;;;;;;;13.48;7.40;;;;;;;35.78;17.13;100026.53;1739503;82;22021;-69
2021/08/19 10:44:45;;;;;;;15.40;7.67;;;;;;;35.77;16.94;100033.92;1735923;82;21332;-74
2021/08/19 10:47:37;;;;;;;16.85;7.90;;;;;;;35.72;16.99;100020.42;1742406;82;21288;-69
2021/08/19 10:50:31;;;;;;;16.32;8.70;;;;;;;35.63;16.95;100015.46;1742897;81;21177;-69
2021/08/19 10:53:20;;;;;;;12.50;7.50;;;;;;;35.49;16.93;100013.27;1738174;81;21201;-75
2021/08/19 10:55:55;;;;;;;12.30;7.65;;;;;;;35.39;17.12;100018.15;1738104;82;21484;-73
2021/08/19 10:58:35;;;;;;;15.85;6.85;;;;;;;35.35;17.07;99991.30;1739662;82;22096;-72
2021/08/19 11:01:21;;;;;;;14.98;7.85;;;;;;;35.36;17.68;99995.61;1738807;82;21325;-73
2021/08/19 11:03:55;;;;;;;14.43;8.05;;;;;;;35.44;17.12;100005.24;1739028;82;21331;-72
2021/08/19 11:06:53;;;;;;;11.88;6.55;;;;;;;35.47;17.14;100004.61;1739507;82;21213;-70
2021/08/19 11:09:27;;;;;;;13.48;7.05;;;;;;;35.50;16.72;99990.39;1738033;82;21473;-71
2021/08/19 11:12:06;;;;;;;12.75;8.03;;;;;;;35.52;16.75;99987.38;1742285;82;21233;-70
2021/08/19 11:14:42;;;;;;;11.88;7.40;;;;;;;35.52;16.87;99988.19;1738437;82;21320;-70
2021/08/19 11:17:18;;;;;;;13.90;7.53;;;;;;;35.53;16.92;99986.28;1738006;82;21232;-69
2021/08/19 11:19:52;;;;;;;14.07;7.67;;;;;;;35.54;16.64;99987.33;1736498;82;21471;-72
2021/08/19 11:22:28;;;;;;;13.70;7.83;;;;;;;35.54;17.09;99983.82;1740455;82;21772;-71
2021/08/19 11:25:01;;;;;;;13.28;8.10;;;;;;;35.51;16.95;99975.71;1738630;82;21308;-69
2021/08/19 11:27:36;;;;;;;12.13;7.70;;;;;;;35.49;16.44;99981.18;1738228;82;21956;-70
2021/08/19 11:30:09;;;;;;;;;;;;;;;35.45;16.61;99966.55;1740424;82;21319;-71
2021/08/19 11:32:41;;;;;;;15.23;7.33;;;;;;;35.41;16.74;99964.20;1739197;82;20271;-71
2021/08/19 11:35:15;;;;;;;11.00;7.12;;;;;;;35.40;16.91;99957.94;1742203;81;21218;-68
2021/08/19 11:37:49;;;;;;;15.98;7.58;;;;;;;35.42;16.70;99964.46;1728274;82;21296;-70
2021/08/19 11:40:27;;;;;;;;;;;;;;;35.41;16.60;99956.84;1742095;82;21572;-70
2021/08/19 11:43:03;;;;;;;17.45;8.08;;;;;;;35.41;16.76;99966.92;1739533;82;20271;-69
2021/08/19 11:45:38;;;;;;;12.28;7.33;;;;;;;35.38;16.59;99964.80;1750818;81;21349;-71
2021/08/19 11:52:20;;;;;;;17.37;6.95;;;;;;;35.36;16.48;99953.42;1736213;82;21299;-68
2021/08/19 11:54:56;;;;;;;11.28;7.30;;;;;;;35.32;16.56;99935.55;1726089;82;21355;-70
2021/08/19 11:57:29;;;;;;;12.28;7.30;;;;;;;35.33;15.95;99936.33;1739266;81;21185;-70
2021/08/19 12:00:07;;;;;;;;;;;;;;;35.30;16.65;99922.78;1746830;82;21339;-74
2021/08/19 12:02:41;;;;;;;11.93;7.53;;;;;;;35.31;16.51;99922.23;1751445;81;20387;-74
2021/08/19 12:05:15;;;;;;;14.85;7.42;;;;;;;35.28;16.48;99918.78;1738018;82;21463;-72
2021/08/19 12:07:49;;;;;;;11.95;7.35;;;;;;;35.31;16.69;99904.54;1738281;82;21871;-71
2021/08/19 12:10:23;;;;;;;13.45;6.78;;;;;;;35.35;16.79;99900.11;1738114;82;21189;-70
2021/08/19 12:12:57;;;;;;;11.08;6.78;;;;;;;35.38;16.60;99899.47;1736188;82;22117;-70
2021/08/19 12:15:29;;;;;;;;;;;;;;;35.41;16.73;99889.34;1741523;82;21359;-70
2021/08/19 12:18:09;;;;;;;13.10;7.28;;;;;;;35.44;16.76;99885.45;1738142;82;20231;-69
2021/08/19 12:20:42;;;;;;;12.05;7.03;;;;;;;35.46;16.30;99906.92;1741138;82;21463;-70
2021/08/19 12:23:24;;;;;;;17.32;7.53;;;;;;;35.44;16.20;99891.45;1742207;81;21184;-73
2021/08/19 12:26:08;;;;;;;12.30;7.58;;;;;;;35.40;16.38;99889.08;1726598;82;21467;-72
2021/08/19 12:28:43;;;;;;;16.48;8.68;;;;;;;35.37;16.25;99883.72;1739546;82;21292;-72
2021/08/19 12:31:17;;;;;;;14.43;7.42;;;;;;;35.36;16.70;99875.84;1726067;82;21193;-70
2021/08/19 12:34:03;;;;;;;14.33;7.55;;;;;;;35.37;16.60;99890.53;1739637;82;21339;-70
2021/08/19 12:36:37;;;;;;;10.25;6.62;;;;;;;35.36;16.32;99890.27;1738006;82;21181;-69
2021/08/19 12:39:22;;;;;;;15.25;7.80;;;;;;;35.36;16.32;99879.92;1738052;82;21219;-72
2021/08/19 12:42:12;;;;;;;13.75;7.30;;;;;;;35.37;16.22;99887.00;1739462;82;21406;-71